Flight Track Log - Related Links

Times and Time Zones

All times are in EST time to prevent confusion due to time zone crossing. See the CPZ5750 flight status page for this flight to view local times or setup timezone preferences in your user account.

Time Position Orientation Groundspeed Altitude Reporting Facility
EST Latitude Longitude Course Direction KTS MPH feet Rate Location/Type
Wed 01:17:21 PM 38.8144 -90.4017 343° North 176 203 3,900  Level Kansas City Center
Wed 01:18:00 PM 39.0804 -90.5103 356° North  Level Estimated
Wed 01:18:23 PM 38.8889 -90.4083 356° North 238 274 6,300  Level Kansas City Center
Wed 01:19:00 PM 39.1910 -90.5574 353° North  Level Estimated
Wed 01:19:25 PM 38.9883 -90.4172 356° North 282 325 10,300  Level Kansas City Center
Wed 01:20:00 PM 39.3063 -90.5370 North  Level FlightAware Approximate
Wed 01:20:27 PM 39.0742 -90.4244 356° North 296 341 12,000  Level Kansas City Center
Wed 01:21:00 PM 39.4216 -90.5164 North  Level FlightAware Approximate
Wed 01:21:30 PM 39.1778 -90.4339 356° North 345 397 14,100  Level Kansas City Center
Wed 01:22:32 PM 39.2864 -90.4436 356° North 374 430 16,200 1,839 Climbing Kansas City Center
Wed 01:23:34 PM 39.4025 -90.4542 356° North 405 466 17,900 1,694 Climbing Kansas City Center
Wed 01:24:36 PM 39.5239 -90.4656 356° North 429 494 19,700 1,984 Climbing Kansas City Center
Wed 01:25:38 PM 39.6683 -90.5067 348° North 441 507 22,000 1,790 Climbing Kansas City Center
Wed 01:26:40 PM 39.7808 -90.5725 336° Northwest 435 501 23,400 1,452 Climbing Kansas City Center
Wed 01:27:42 PM 39.8953 -90.6394 336° Northwest 445 512 25,000 1,548 Climbing Kansas City Center
Wed 01:28:44 PM 40.0117 -90.7078 336° Northwest 452 520 26,600 1,355 Climbing Kansas City Center
Wed 01:29:46 PM 40.1300 -90.7772 336° Northwest 458 527 27,800 1,161 Climbing Kansas City Center
Wed 01:30:48 PM 40.2497 -90.8475 336° Northwest 463 533 29,000 1,065 Climbing Kansas City Center
Wed 01:31:50 PM 40.3700 -90.9189 336° Northwest 469 540 30,000 484 Climbing Kansas City Center
Wed 01:32:52 PM 40.5183 -91.0069 336° Northwest 478 550 30,000  Level Kansas City Center
Wed 01:33:52 PM 40.6203 -91.0675 336° Northwest 490 564 30,000  Level Chicago Center
Wed 01:34:54 PM 40.7686 -91.1572 335° Northwest 487 560 30,000  Level Chicago Center
Wed 01:35:56 PM 40.8931 -91.2328 335° Northwest 490 564 30,000  Level Chicago Center
Wed 01:36:58 PM 41.0186 -91.3086 336° Northwest 494 568 30,000  Level Chicago Center
Wed 01:38:00 PM 41.1439 -91.3850 335° Northwest 493 567 30,000  Level Chicago Center
Wed 01:39:02 PM 41.2706 -91.4617 336° Northwest 492 566 30,000  Level Chicago Center
Wed 01:40:05 PM 41.3950 -91.5389 335° Northwest 494 568 30,000 -48 Level Chicago Center
Wed 01:41:07 PM 41.5394 -91.6311 334° Northwest 487 560 29,900 -339 Descending Chicago Center
Wed 01:42:09 PM 41.6542 -91.7156 331° Northwest 476 548 29,300 -629 Descending Chicago Center
Wed 01:43:11 PM 41.7675 -91.7975 332° Northwest 468 539 28,600 -629 Descending Chicago Center
Wed 01:44:13 PM 41.8794 -91.8822 331° Northwest 463 533 28,000 -290 Descending Chicago Center
Wed 01:45:15 PM 41.9911 -91.9661 331° Northwest 462 532 28,000  Level Chicago Center
Wed 01:46:17 PM 42.1022 -92.0511 330° Northwest 461 531 28,000  Level Chicago Center
Wed 01:47:19 PM 42.2358 -92.1514 331° Northwest 458 527 28,000  Level Chicago Center
Wed 01:48:21 PM 42.3442 -92.2333 331° Northwest 453 521 28,000  Level Chicago Center
Wed 01:49:24 PM 42.4528 -92.3183 330° Northwest 449 517 28,000  Level Chicago Center
Wed 01:50:26 PM 42.5622 -92.4047 330° Northwest 453 521 28,000  Level Chicago Center
Wed 01:51:28 PM 42.6661 -92.5000 326° Northwest 451 519 28,000  Level Chicago Center
Wed 01:52:30 PM 42.7883 -92.6117 326° Northwest 445 512 28,000  Level Chicago Center
Wed 01:53:32 PM 42.8903 -92.7069 326° Northwest 445 512 28,000  Level Minneapolis Center
Wed 01:54:34 PM 42.9914 -92.8000 326° Northwest 442 509 28,000  Level Minneapolis Center
Wed 01:55:35 PM 43.1106 -92.8603 340° North 456 525 28,000  Level Minneapolis Center
Wed 01:56:37 PM 43.2308 -92.9156 341° North 458 527 28,000 -48 Level Minneapolis Center
Wed 01:57:39 PM 43.3533 -92.9664 343° North 460 529 27,900 -1,548 Descending Minneapolis Center
Wed 01:58:41 PM 43.5025 -93.0097 348° North 460 529 24,800 -2,710 Descending Minneapolis Center
Wed 01:59:43 PM 43.6178 -93.0417 349° North 437 503 22,300 -2,371 Descending Minneapolis Center
Wed 02:00:45 PM 43.7258 -93.0744 348° North 412 474 19,900 -2,274 Descending Minneapolis Center
Wed 02:01:47 PM 43.8344 -93.1044 349° North 389 448 17,600 -2,177 Descending Minneapolis Center
Wed 02:02:49 PM 43.9328 -93.1333 348° North 370 426 15,400 -2,098 Descending Minneapolis Center
Wed 02:03:50 PM 44.0247 -93.1600 348° North 349 402 13,300 -1,935 Descending Minneapolis Center
Wed 02:04:53 PM 44.1131 -93.1872 348° North 327 376 11,400 -1,597 Descending Minneapolis Center
Wed 02:05:54 PM 44.2119 -93.2161 348° North 301 346 10,000 -683 Descending Minneapolis Center
Wed 02:06:56 PM 44.2858 -93.2164 360° North 271 312 10,000 -387 Level Minneapolis Center
Wed 02:07:58 PM 44.3606 -93.2025 North 271 312 9,200 -1,065 Descending Minneapolis Center
Wed 02:09:00 PM 44.4306 -93.1847 10° North 258 297 7,800 -1,065 Descending Minneapolis Center
Wed 02:10:02 PM 44.4967 -93.1686 10° North 245 282 7,000 -387 Descending Minneapolis Center
Wed 02:11:04 PM 44.5644 -93.1583 North 246 283 7,000 -387 Level Minneapolis Center
Wed 02:12:06 PM 44.6175 -93.1728 349° North 197 227 6,200 -1,016 Descending Minneapolis Center
Wed 02:13:08 PM 44.6756 -93.1878 350° North 179 206 4,900 -1,065 Descending Minneapolis Center
Wed 02:14:10 PM 44.7181 -93.1986 350° North 160 184 4,000 -823 Descending Minneapolis Center
Wed 02:15:12 PM 44.7572 -93.2086 350° North 151 174 3,200 -871 Descending Minneapolis Center
Wed 02:16:14 PM 44.8042 -93.2206 350° North 148 170 2,200 -829 Descending Minneapolis Center
Wed 02:17:15 PM 44.8389 -93.2297 349° North 132 152 1,500 -689 Descending Minneapolis Center

Login

Don't have an account? Register now (free) for customized features, flight alerts, and more!